createdAt,value
2022-08-11T00:00:08.999Z,17.81
2022-08-11T00:02:42.369Z,17.74
2022-08-11T00:05:12.385Z,17.70
2022-08-11T00:07:48.579Z,17.68
2022-08-11T00:10:18.813Z,17.64
2022-08-11T00:12:50.409Z,17.70
2022-08-11T00:15:17.476Z,17.58
2022-08-11T00:17:44.642Z,17.52
2022-08-11T00:20:16.770Z,17.48
2022-08-11T00:22:46.398Z,17.46
2022-08-11T00:25:15.982Z,17.45
2022-08-11T00:27:43.174Z,17.40
2022-08-11T00:30:12.186Z,17.37
2022-08-11T00:32:40.910Z,17.34
2022-08-11T00:35:51.864Z,17.32
2022-08-11T00:37:59.359Z,17.30
2022-08-11T00:40:39.370Z,17.28
2022-08-11T00:43:59.514Z,17.28
2022-08-11T00:46:26.104Z,17.20
2022-08-11T00:48:55.268Z,17.17
2022-08-11T00:52:04.349Z,17.16
2022-08-11T00:54:38.469Z,17.12
2022-08-11T00:57:36.168Z,17.09
2022-08-11T01:00:20.705Z,17.10
2022-08-11T01:03:09.085Z,17.07
2022-08-11T01:05:46.937Z,17.01
2022-08-11T01:08:49.211Z,17.01
2022-08-11T01:11:55.485Z,16.98
2022-08-11T01:15:12.880Z,16.95
2022-08-11T01:17:56.424Z,16.87
2022-08-11T01:20:48.594Z,16.85
2022-08-11T01:23:22.277Z,16.82
2022-08-11T01:26:19.732Z,16.83
2022-08-11T01:29:20.531Z,16.80
2022-08-11T01:32:02.500Z,16.77
2022-08-11T01:35:03.475Z,16.75
2022-08-11T01:37:57.378Z,16.73
2022-08-11T01:40:56.298Z,16.73
2022-08-11T01:44:18.839Z,16.68
2022-08-11T01:46:51.961Z,16.64
2022-08-11T01:50:07.638Z,16.66
2022-08-11T01:52:49.161Z,16.63
2022-08-11T01:55:26.728Z,16.60
2022-08-11T01:58:43.419Z,16.60
2022-08-11T02:01:45.467Z,16.58
2022-08-11T02:04:25.644Z,16.54
2022-08-11T02:07:30.945Z,16.56
2022-08-11T02:10:35.391Z,16.52
2022-08-11T02:13:44.662Z,16.49
2022-08-11T02:16:38.023Z,16.45
2022-08-11T02:19:40.985Z,16.45
2022-08-11T02:22:51.955Z,16.38
2022-08-11T02:25:36.871Z,16.39
2022-08-11T02:28:08.844Z,16.36
2022-08-11T02:30:42.600Z,16.35
2022-08-11T02:33:24.798Z,16.35
2022-08-11T02:36:01.233Z,16.31
2022-08-11T02:39:00.858Z,16.36
2022-08-11T02:42:08.867Z,16.34
2022-08-11T02:45:32.944Z,16.33
2022-08-11T02:48:36.903Z,16.29
2022-08-11T02:51:21.161Z,16.28
2022-08-11T02:54:20.561Z,16.30
2022-08-11T02:56:57.140Z,16.27
2022-08-11T02:59:51.182Z,16.26
2022-08-11T03:02:27.808Z,16.21
2022-08-11T03:05:13.733Z,16.24
2022-08-11T03:07:40.154Z,16.21
2022-08-11T03:10:20.577Z,16.19
2022-08-11T03:13:11.986Z,16.18
2022-08-11T03:16:09.281Z,16.17
2022-08-11T03:18:51.396Z,16.16
2022-08-11T03:22:01.695Z,16.14
2022-08-11T03:24:22.803Z,16.11
2022-08-11T03:27:08.486Z,16.11
2022-08-11T03:29:47.639Z,16.10
2022-08-11T03:32:36.203Z,16.09
2022-08-11T03:35:04.627Z,16.03
2022-08-11T03:37:50.454Z,16.03
2022-08-11T03:40:47.766Z,16.00
2022-08-11T03:43:50.267Z,15.99
2022-08-11T03:46:45.800Z,16.05
2022-08-11T03:49:18.024Z,15.96
2022-08-11T03:52:04.532Z,15.96
2022-08-11T03:55:04.398Z,15.94
2022-08-11T03:57:59.241Z,15.93
2022-08-11T04:01:08.033Z,15.91
2022-08-11T04:04:14.828Z,15.93
2022-08-11T04:07:02.758Z,15.88
2022-08-11T04:10:07.540Z,15.90
2022-08-11T04:13:08.435Z,15.89
2022-08-11T04:16:10.973Z,15.85
2022-08-11T04:19:05.832Z,15.87
2022-08-11T04:21:35.250Z,15.85
2022-08-11T04:24:35.223Z,15.84
2022-08-11T04:27:37.635Z,15.86
2022-08-11T04:30:21.682Z,15.86
2022-08-11T04:33:18.894Z,15.88
2022-08-11T04:36:09.692Z,15.88
2022-08-11T04:39:03.916Z,15.90
2022-08-11T04:42:29.623Z,15.91
2022-08-11T04:45:26.347Z,15.92
2022-08-11T04:48:30.346Z,15.92
2022-08-11T04:51:30.620Z,15.98
2022-08-11T04:54:59.731Z,16.03
2022-08-11T04:57:59.800Z,16.06
2022-08-11T05:00:52.814Z,16.11
2022-08-11T05:03:23.174Z,16.15
2022-08-11T05:06:24.704Z,16.22
2022-08-11T05:08:54.065Z,16.26
2022-08-11T05:11:32.806Z,16.34
2022-08-11T05:14:55.598Z,16.41
2022-08-11T05:17:54.612Z,16.48
2022-08-11T05:20:40.957Z,16.54
2022-08-11T05:23:28.174Z,16.61
2022-08-11T05:26:47.439Z,16.68
2022-08-11T05:29:43.027Z,16.80
2022-08-11T05:32:32.052Z,16.91
2022-08-11T05:35:03.652Z,16.99
2022-08-11T05:37:30.046Z,17.09
2022-08-11T05:40:24.028Z,17.19
2022-08-11T05:43:14.317Z,17.27
2022-08-11T05:46:04.554Z,17.57
2022-08-11T05:48:55.069Z,17.78
2022-08-11T05:51:51.990Z,18.04
2022-08-11T05:54:41.156Z,18.27
2022-08-11T05:57:07.942Z,18.44
2022-08-11T05:59:34.620Z,18.57
2022-08-11T06:02:07.355Z,18.70
2022-08-11T06:04:34.600Z,18.80
2022-08-11T06:07:08.887Z,18.92
2022-08-11T06:09:44.346Z,19.05
2022-08-11T06:12:38.012Z,19.20
2022-08-11T06:15:07.514Z,19.27
2022-08-11T06:17:44.270Z,19.39
2022-08-11T06:20:12.946Z,19.49
2022-08-11T06:22:43.744Z,19.59
2022-08-11T06:25:11.833Z,19.71
2022-08-11T06:27:40.775Z,19.80
2022-08-11T06:30:13.465Z,19.92
2022-08-11T06:32:45.903Z,20.03
2022-08-11T06:35:18.265Z,20.15
2022-08-11T06:37:58.992Z,20.28
2022-08-11T06:41:08.676Z,20.40
2022-08-11T06:43:55.978Z,20.59
2022-08-11T06:46:32.230Z,20.69
2022-08-11T06:49:03.170Z,20.87
2022-08-11T06:51:32.716Z,20.99
2022-08-11T06:54:04.394Z,21.13
2022-08-11T06:57:26.266Z,21.30
2022-08-11T07:00:04.801Z,21.46
2022-08-11T07:02:43.255Z,21.63
2022-08-11T07:05:18.303Z,21.76
2022-08-11T07:08:35.776Z,21.94
2022-08-11T07:11:35.316Z,22.07
2022-08-11T07:14:23.105Z,22.20
2022-08-11T07:16:51.651Z,22.35
2022-08-11T07:19:42.911Z,22.49
2022-08-11T07:22:30.333Z,22.69
2022-08-11T07:25:22.249Z,22.84
2022-08-11T07:28:15.299Z,23.03
2022-08-11T07:30:43.244Z,23.15
2022-08-11T07:33:21.137Z,23.32
2022-08-11T07:36:03.480Z,23.46
2022-08-11T07:38:51.585Z,23.66
2022-08-11T07:41:21.768Z,23.73
2022-08-11T07:44:09.188Z,23.92
2022-08-11T07:47:00.855Z,24.04
2022-08-11T07:49:48.020Z,24.16
2022-08-11T07:52:28.506Z,24.32
2022-08-11T07:55:02.310Z,24.47
2022-08-11T07:58:13.654Z,24.59
2022-08-11T08:01:02.914Z,24.81
2022-08-11T08:03:54.211Z,25.03
2022-08-11T08:06:41.647Z,25.27
2022-08-11T08:09:27.657Z,25.50
2022-08-11T08:12:13.962Z,25.68
2022-08-11T08:15:00.992Z,25.75
2022-08-11T08:18:20.730Z,25.93
2022-08-11T08:20:40.342Z,26.02
2022-08-11T08:23:08.010Z,26.05
2022-08-11T08:25:38.027Z,26.08
2022-08-11T08:28:06.579Z,26.30
2022-08-11T08:30:50.526Z,26.21
2022-08-11T08:33:16.874Z,26.28
2022-08-11T08:35:54.250Z,26.34
2022-08-11T08:38:22.518Z,26.44
2022-08-11T08:40:55.934Z,26.54
2022-08-11T08:43:24.194Z,26.62
2022-08-11T08:45:55.759Z,26.74
2022-08-11T08:48:24.850Z,26.84
2022-08-11T08:51:15.098Z,27.01
2022-08-11T08:53:52.544Z,27.14
2022-08-11T08:56:30.349Z,27.28
2022-08-11T08:58:59.418Z,27.35
2022-08-11T09:01:29.534Z,27.52
2022-08-11T09:04:07.298Z,27.62
2022-08-11T09:06:40.257Z,27.75
2022-08-11T09:09:08.891Z,27.87
2022-08-11T09:11:55.503Z,28.02
2022-08-11T09:14:55.519Z,28.24
2022-08-11T09:17:23.663Z,28.45
2022-08-11T09:20:01.551Z,28.69
2022-08-11T09:23:06.493Z,29.03
2022-08-11T09:25:55.524Z,29.51
2022-08-11T09:28:23.654Z,29.94
2022-08-11T09:30:55.110Z,30.36
2022-08-11T09:33:23.856Z,30.80
2022-08-11T09:35:52.478Z,31.23
2022-08-11T09:38:46.137Z,31.62
2022-08-11T09:41:15.599Z,32.07
2022-08-11T09:44:06.091Z,32.45
2022-08-11T09:46:35.733Z,32.69
2022-08-11T09:49:04.357Z,33.06
2022-08-11T09:51:32.157Z,33.31
2022-08-11T09:54:06.499Z,33.61
2022-08-11T09:56:52.511Z,33.75
2022-08-11T09:59:21.841Z,33.96
2022-08-11T10:01:50.545Z,34.53
2022-08-11T10:04:22.680Z,34.27
2022-08-11T10:07:05.403Z,34.39
2022-08-11T10:09:49.120Z,34.66
2022-08-11T10:12:27.887Z,34.86
2022-08-11T10:15:15.641Z,34.99
2022-08-11T10:18:06.084Z,35.11
2022-08-11T10:20:35.175Z,35.23
2022-08-11T10:23:21.749Z,35.28
2022-08-11T10:26:07.539Z,35.42
2022-08-11T10:28:50.093Z,35.56
2022-08-11T10:31:57.034Z,35.61
2022-08-11T10:34:25.552Z,35.70
2022-08-11T10:36:55.516Z,35.82
2022-08-11T10:39:22.845Z,35.86
2022-08-11T10:42:14.351Z,36.01
2022-08-11T10:44:52.000Z,36.19
2022-08-11T10:47:39.318Z,36.22
2022-08-11T10:50:32.464Z,36.33
2022-08-11T10:53:19.302Z,36.32
2022-08-11T10:58:50.095Z,36.36
2022-08-11T11:01:34.633Z,36.51
2022-08-11T11:04:15.602Z,36.54
2022-08-11T11:06:44.835Z,36.61
2022-08-11T11:09:14.591Z,37.15
2022-08-11T11:12:09.852Z,36.87
2022-08-11T11:14:59.354Z,36.87
2022-08-11T11:17:56.986Z,37.01
2022-08-11T11:20:36.790Z,37.03
2022-08-11T11:23:10.101Z,37.05
2022-08-11T11:26:06.902Z,37.27
2022-08-11T11:28:47.435Z,37.22
2022-08-11T11:31:32.040Z,37.31
2022-08-11T11:34:30.463Z,37.46
2022-08-11T11:36:59.827Z,37.32
2022-08-11T11:39:28.880Z,37.29
2022-08-11T11:41:56.162Z,37.80
2022-08-11T11:44:24.702Z,37.39
2022-08-11T11:46:52.497Z,37.22
2022-08-11T11:51:57.210Z,37.14
2022-08-11T11:54:26.592Z,37.22
2022-08-11T11:56:54.822Z,37.36
2022-08-11T11:59:43.109Z,37.49
2022-08-11T12:02:12.160Z,37.49
2022-08-11T12:04:43.101Z,37.61
2022-08-11T12:07:29.545Z,37.66
2022-08-11T12:09:57.681Z,37.73
2022-08-11T12:12:43.823Z,37.70
2022-08-11T12:15:11.575Z,37.73
2022-08-11T12:17:38.984Z,37.84
2022-08-11T12:20:30.851Z,37.82
2022-08-11T12:23:14.675Z,37.84
2022-08-11T12:26:26.424Z,37.79
2022-08-11T12:28:50.499Z,37.83
2022-08-11T12:31:17.447Z,37.81
2022-08-11T12:33:44.449Z,37.89
2022-08-11T12:36:15.735Z,37.87
2022-08-11T12:38:51.356Z,38.06
2022-08-11T12:41:39.536Z,38.06
2022-08-11T12:44:41.675Z,38.27
2022-08-11T12:47:09.253Z,38.26
2022-08-11T12:50:00.934Z,38.21
2022-08-11T12:52:29.893Z,38.22
2022-08-11T12:55:13.217Z,38.26
2022-08-11T12:58:03.924Z,38.05
2022-08-11T13:00:50.240Z,37.70
2022-08-11T13:03:38.707Z,37.42
2022-08-11T13:06:06.350Z,37.10
2022-08-11T13:08:36.731Z,37.16
2022-08-11T13:11:22.939Z,36.86
2022-08-11T13:13:57.017Z,36.68
2022-08-11T13:16:29.186Z,36.78
2022-08-11T13:18:58.663Z,36.75
2022-08-11T13:21:26.894Z,36.88
2022-08-11T13:23:59.736Z,37.04
2022-08-11T13:26:43.122Z,37.16
2022-08-11T13:29:14.908Z,37.15
2022-08-11T13:31:42.989Z,37.18
2022-08-11T13:34:10.283Z,37.32
2022-08-11T13:36:37.172Z,37.40
2022-08-11T13:39:04.203Z,37.39
2022-08-11T13:41:39.827Z,37.46
2022-08-11T13:44:08.090Z,37.45
2022-08-11T13:46:35.659Z,37.45
2022-08-11T13:49:02.926Z,37.52
2022-08-11T13:51:34.066Z,37.61
2022-08-11T13:54:30.134Z,37.71
2022-08-11T13:57:00.501Z,37.57
2022-08-11T13:59:30.819Z,37.55
2022-08-11T14:02:21.631Z,37.61
2022-08-11T14:04:56.692Z,37.58
2022-08-11T14:07:27.474Z,37.49
2022-08-11T14:09:58.944Z,37.44
2022-08-11T14:12:52.205Z,37.53
2022-08-11T14:15:25.500Z,37.37
2022-08-11T14:17:56.874Z,37.40
2022-08-11T14:20:39.030Z,37.33
2022-08-11T14:23:10.760Z,37.28
2022-08-11T14:26:00.842Z,37.15
2022-08-11T14:28:31.071Z,36.85
2022-08-11T14:31:02.835Z,36.70
2022-08-11T14:33:59.661Z,36.52
2022-08-11T14:36:21.530Z,36.41
2022-08-11T14:38:49.493Z,36.21
2022-08-11T14:41:36.470Z,36.15
2022-08-11T14:44:22.218Z,35.91
2022-08-11T14:47:23.189Z,35.95
2022-08-11T14:50:02.555Z,36.05
2022-08-11T14:53:05.282Z,36.04
2022-08-11T14:55:55.413Z,36.05
2022-08-11T14:58:26.067Z,36.15
2022-08-11T15:00:55.228Z,36.15
2022-08-11T15:03:28.263Z,36.19
2022-08-11T15:05:58.548Z,36.27
2022-08-11T15:08:47.762Z,36.37
2022-08-11T15:11:33.898Z,36.93
2022-08-11T15:14:02.330Z,36.60
2022-08-11T15:16:48.198Z,36.56
2022-08-11T15:19:16.584Z,36.44
2022-08-11T15:22:01.616Z,36.28
2022-08-11T15:24:30.728Z,36.15
2022-08-11T15:27:19.162Z,36.17
2022-08-11T15:30:05.939Z,36.19
2022-08-11T15:32:53.792Z,36.32
2022-08-11T15:35:39.875Z,36.43
2022-08-11T15:38:11.592Z,36.72
2022-08-11T15:40:59.215Z,36.83
2022-08-11T15:43:56.958Z,36.91
2022-08-11T15:46:31.517Z,36.99
2022-08-11T15:49:11.299Z,37.25
2022-08-11T15:51:43.803Z,37.13
2022-08-11T15:54:17.316Z,37.24
2022-08-11T15:56:46.363Z,37.15
2022-08-11T15:59:43.308Z,36.92
2022-08-11T16:02:33.735Z,36.64
2022-08-11T16:05:04.095Z,36.45
2022-08-11T16:07:38.442Z,36.32
2022-08-11T16:10:18.737Z,36.19
2022-08-11T16:13:05.972Z,36.14
2022-08-11T16:15:54.568Z,35.86
2022-08-11T16:18:25.565Z,35.90
2022-08-11T16:20:56.936Z,35.85
2022-08-11T16:23:28.293Z,35.74
2022-08-11T16:27:02.258Z,35.70
2022-08-11T16:28:44.218Z,35.66
2022-08-11T16:31:12.541Z,35.65
2022-08-11T16:33:49.464Z,35.62
2022-08-11T16:36:38.434Z,35.57
2022-08-11T16:39:07.089Z,35.51
2022-08-11T16:41:53.986Z,35.52
2022-08-11T16:44:40.809Z,35.50
2022-08-11T16:47:12.011Z,35.63
2022-08-11T16:49:52.483Z,35.65
2022-08-11T16:52:20.335Z,35.55
2022-08-11T16:54:49.651Z,35.56
2022-08-11T16:57:39.888Z,35.69
2022-08-11T17:00:12.544Z,35.71
2022-08-11T17:03:05.348Z,35.67
2022-08-11T17:05:53.848Z,35.65
2022-08-11T17:08:44.078Z,35.91
2022-08-11T17:11:42.061Z,35.58
2022-08-11T17:14:35.004Z,35.49
2022-08-11T17:17:05.910Z,35.38
2022-08-11T17:20:41.240Z,35.61
2022-08-11T17:22:39.883Z,35.16
2022-08-11T17:25:08.731Z,35.03
2022-08-11T17:27:36.458Z,34.91
2022-08-11T17:30:06.263Z,34.78
2022-08-11T17:33:12.103Z,34.60
2022-08-11T17:35:41.570Z,34.45
2022-08-11T17:38:18.847Z,34.69
2022-08-11T17:41:06.723Z,34.23
2022-08-11T17:43:52.496Z,34.13
2022-08-11T17:46:39.049Z,33.99
2022-08-11T17:49:07.786Z,33.85
2022-08-11T17:51:53.934Z,33.75
2022-08-11T17:54:40.373Z,33.65
2022-08-11T17:57:28.546Z,33.44
2022-08-11T17:59:57.691Z,33.31
2022-08-11T18:02:53.386Z,33.19
2022-08-11T18:05:26.914Z,33.01
2022-08-11T18:08:15.149Z,32.84
2022-08-11T18:11:01.386Z,32.60
2022-08-11T18:13:49.754Z,32.47
2022-08-11T18:16:35.170Z,32.22
2022-08-11T18:19:21.044Z,32.08
2022-08-11T18:22:07.961Z,31.93
2022-08-11T18:25:07.392Z,31.69
2022-08-11T18:27:54.486Z,31.40
2022-08-11T18:30:39.912Z,31.09
2022-08-11T18:36:36.006Z,30.34
2022-08-11T18:39:23.579Z,29.95
2022-08-11T18:42:10.151Z,29.52
2022-08-11T18:44:57.057Z,29.14
2022-08-11T18:47:44.350Z,28.78
2022-08-11T18:50:38.855Z,28.40
2022-08-11T18:53:26.144Z,28.06
2022-08-11T18:56:11.527Z,27.74
2022-08-11T18:59:01.918Z,27.49
2022-08-11T19:01:54.814Z,27.16
2022-08-11T19:04:41.391Z,26.91
2022-08-11T19:07:28.691Z,26.65
2022-08-11T19:10:15.046Z,26.41
2022-08-11T19:13:01.876Z,26.06
2022-08-11T19:15:48.137Z,25.97
2022-08-11T19:18:38.354Z,25.80
2022-08-11T19:21:24.902Z,25.58
2022-08-11T19:24:14.804Z,25.41
2022-08-11T19:27:01.595Z,25.28
2022-08-11T19:30:05.233Z,25.10
2022-08-11T19:32:55.120Z,24.94
2022-08-11T19:35:40.485Z,24.76
2022-08-11T19:38:27.350Z,24.64
2022-08-11T19:41:13.253Z,24.48
2022-08-11T19:44:00.936Z,24.33
2022-08-11T19:46:46.221Z,24.21
2022-08-11T19:49:33.145Z,24.11
2022-08-11T19:52:18.463Z,23.97
2022-08-11T19:55:04.567Z,23.79
2022-08-11T19:57:50.715Z,23.76
2022-08-11T20:00:38.517Z,23.67
2022-08-11T20:03:27.171Z,23.52
2022-08-11T20:06:14.536Z,23.45
2022-08-11T20:09:02.583Z,23.35
2022-08-11T20:11:51.941Z,23.23
2022-08-11T20:14:39.449Z,23.14
2022-08-11T20:17:27.639Z,23.05
2022-08-11T20:20:13.979Z,22.92
2022-08-11T20:22:59.840Z,22.79
2022-08-11T20:25:46.126Z,22.75
2022-08-11T20:28:32.645Z,22.68
2022-08-11T20:31:17.636Z,22.60
2022-08-11T20:34:04.446Z,22.51
2022-08-11T20:36:54.886Z,22.45
2022-08-11T20:39:42.742Z,22.35
2022-08-11T20:42:39.948Z,22.26
2022-08-11T20:45:28.563Z,22.18
2022-08-11T20:48:16.345Z,22.07
2022-08-11T20:51:05.929Z,22.00
2022-08-11T20:53:56.412Z,21.89
2022-08-11T20:56:44.350Z,21.81
2022-08-11T20:59:33.350Z,21.71
2022-08-11T21:02:35.192Z,21.59
2022-08-11T21:06:09.071Z,21.52
2022-08-11T21:08:26.536Z,21.45
2022-08-11T21:11:13.977Z,21.32
2022-08-11T21:14:01.482Z,21.26
2022-08-11T21:16:53.635Z,21.21
2022-08-11T21:20:06.723Z,21.12
2022-08-11T21:22:59.143Z,21.06
2022-08-11T21:26:21.082Z,20.99
2022-08-11T21:29:07.949Z,20.90
2022-08-11T21:31:54.423Z,20.81
2022-08-11T21:34:41.717Z,20.76
2022-08-11T21:37:28.755Z,20.68
2022-08-11T21:40:17.724Z,20.60
2022-08-11T21:43:05.682Z,20.54
2022-08-11T21:45:54.072Z,20.49
2022-08-11T21:48:40.214Z,20.43
2022-08-11T21:51:25.105Z,20.35
2022-08-11T21:54:11.701Z,20.28
2022-08-11T21:56:58.132Z,20.24
2022-08-11T21:59:56.851Z,20.20
2022-08-11T22:02:43.362Z,20.18
2022-08-11T22:05:36.072Z,20.14
2022-08-11T22:08:21.674Z,20.05
2022-08-11T22:11:07.136Z,20.06
2022-08-11T22:14:06.318Z,20.03
2022-08-11T22:16:53.954Z,20.00
2022-08-11T22:19:41.508Z,19.97
2022-08-11T22:22:29.046Z,19.94
2022-08-11T22:25:18.555Z,19.89
2022-08-11T22:28:04.424Z,19.86
2022-08-11T22:30:49.870Z,19.80
2022-08-11T22:33:36.556Z,19.76
2022-08-11T22:36:27.827Z,19.71
2022-08-11T22:39:14.351Z,19.66
2022-08-11T22:41:59.539Z,19.62
2022-08-11T22:44:44.750Z,19.57
2022-08-11T22:47:38.262Z,19.53
2022-08-11T22:50:26.841Z,19.48
2022-08-11T22:53:12.913Z,19.40
2022-08-11T22:55:59.342Z,19.39
2022-08-11T22:58:44.511Z,19.33
2022-08-11T23:01:33.945Z,19.29
2022-08-11T23:04:20.278Z,19.25
2022-08-11T23:07:07.115Z,19.20
2022-08-11T23:09:53.045Z,19.13
2022-08-11T23:12:39.041Z,19.10
2022-08-11T23:15:24.642Z,19.06
2022-08-11T23:18:09.923Z,18.98
2022-08-11T23:20:56.619Z,18.94
2022-08-11T23:23:42.868Z,18.89
2022-08-11T23:26:28.611Z,18.86
2022-08-11T23:29:15.891Z,18.79
2022-08-11T23:32:02.271Z,18.76
2022-08-11T23:35:36.891Z,18.71
2022-08-11T23:37:59.868Z,18.66
2022-08-11T23:40:45.594Z,18.60
2022-08-11T23:43:42.279Z,18.57
2022-08-11T23:46:28.016Z,18.48
2022-08-11T23:49:20.900Z,18.46
2022-08-11T23:52:07.672Z,18.39
2022-08-11T23:54:54.065Z,18.35
2022-08-11T23:57:47.567Z,18.28
